Time;durP1;ratioP1;P1;durP2;ratioP2;P2;SDS_P1;SDS_P2;PMS_P1;PMS_P2;Temp;Humidity;BMP_temperature;BMP_pressure;BME280_temperature;BME280_humidity;BME280_pressure;Samples;Min_cycle;Max_cycle;Signal;HPM_P1;HPM_P2
2023/10/09 00:02:23;;;;;;;5.63;1.20;;;;;;;3.32;100.00;98893.22;5139366;28;20311;-59
2023/10/09 00:04:51;;;;;;;5.68;1.20;;;;;;;3.30;100.00;98886.22;5138803;28;20047;-60
2023/10/09 00:07:17;;;;;;;5.30;1.00;;;;;;;3.35;100.00;98889.88;5139065;28;20089;-59
2023/10/09 00:09:46;;;;;;;0.95;0.85;;;;;;;3.37;100.00;98885.72;5138768;28;20405;-60
2023/10/09 00:12:16;;;;;;;2.53;1.15;;;;;;;3.25;100.00;98891.00;5138719;28;20420;-59
2023/10/09 00:14:47;;;;;;;1.15;1.00;;;;;;;3.18;100.00;98888.81;5139077;28;20053;-60
2023/10/09 00:17:17;;;;;;;0.80;0.80;;;;;;;3.07;100.00;98887.56;5138556;28;20478;-59
2023/10/09 00:19:47;;;;;;;1.38;0.75;;;;;;;3.20;100.00;98937.22;5138928;28;20073;-60
2023/10/09 00:22:19;;;;;;;1.38;0.95;;;;;;;3.17;100.00;98938.69;5138521;28;20061;-59
2023/10/09 00:24:46;;;;;;;5.65;1.00;;;;;;;3.28;100.00;98937.22;5139086;28;20058;-60
2023/10/09 00:27:12;;;;;;;2.63;1.77;;;;;;;3.39;100.00;98955.84;5138383;28;20062;-60
2023/10/09 00:29:44;;;;;;;16.33;1.55;;;;;;;3.24;100.00;98932.78;5138363;28;20047;-60
2023/10/09 00:32:22;;;;;;;1.00;0.75;;;;;;;3.25;100.00;98926.22;5138645;28;20054;-59
2023/10/09 00:34:50;;;;;;;1.02;0.98;;;;;;;3.26;100.00;98931.31;5138404;28;20086;-59
2023/10/09 00:37:17;;;;;;;2.17;0.98;;;;;;;3.46;100.00;98937.97;5138500;28;20401;-59
2023/10/09 00:39:43;;;;;;;3.80;1.15;;;;;;;3.36;100.00;98913.13;5138209;28;20137;-59
2023/10/09 00:42:12;;;;;;;0.95;0.80;;;;;;;3.54;100.00;98874.03;5138725;28;20043;-59
2023/10/09 00:44:40;;;;;;;2.78;0.82;;;;;;;3.27;100.00;98856.28;5138254;28;20046;-59
2023/10/09 00:47:20;;;;;;;6.47;1.30;;;;;;;3.59;100.00;98857.56;5138627;28;20043;-59
2023/10/09 00:49:49;;;;;;;0.85;0.77;;;;;;;3.60;100.00;98796.03;5138088;28;20130;-59
2023/10/09 00:52:23;;;;;;;1.63;0.98;;;;;;;3.66;100.00;98754.84;5138311;28;20062;-59
2023/10/09 00:54:51;;;;;;;1.27;0.90;;;;;;;3.61;100.00;98710.88;5138147;28;20435;-59
2023/10/09 00:57:24;;;;;;;2.30;1.17;;;;;;;3.54;100.00;98697.88;5138110;28;20055;-60
2023/10/09 00:59:59;;;;;;;3.97;1.55;;;;;;;3.52;100.00;98690.03;5138340;28;20135;-59
2023/10/09 01:02:35;;;;;;;1.20;0.90;;;;;;;3.62;100.00;98688.06;5137916;28;20050;-59
2023/10/09 01:05:18;;;;;;;1.60;1.10;;;;;;;3.80;100.00;98661.59;5137213;27;20051;-60
2023/10/09 01:07:46;;;;;;;0.90;0.80;;;;;;;3.64;100.00;98594.47;5137731;28;20051;-60
2023/10/09 01:10:35;;;;;;;6.43;1.00;;;;;;;3.48;100.00;98553.63;5137950;28;20079;-59
2023/10/09 01:12:59;;;;;;;1.30;0.80;;;;;;;3.52;100.00;98570.78;5137602;28;20134;-59
2023/10/09 01:15:35;;;;;;;1.85;1.00;;;;;;;3.53;100.00;98568.88;5137901;28;20047;-60
2023/10/09 01:18:07;;;;;;;1.83;1.08;;;;;;;3.72;100.00;98563.75;5138061;28;20051;-59
2023/10/09 01:20:41;;;;;;;1.70;0.98;;;;;;;3.48;100.00;98526.53;5137761;28;20058;-60
2023/10/09 01:23:09;;;;;;;1.15;0.90;;;;;;;3.29;100.00;98553.31;5138140;28;20047;-59
2023/10/09 01:25:43;;;;;;;1.23;0.85;;;;;;;3.33;100.00;98559.63;5137567;28;20054;-60
2023/10/09 01:28:09;;;;;;;3.70;1.05;;;;;;;3.25;100.00;98564.00;5137729;28;20104;-59
2023/10/09 01:30:41;;;;;;;0.70;0.70;;;;;;;3.17;100.00;98561.38;5137522;28;20400;-60
2023/10/09 01:33:15;;;;;;;1.48;1.38;;;;;;;3.05;100.00;98570.22;5137633;28;20093;-60
2023/10/09 01:35:48;;;;;;;1.30;0.70;;;;;;;3.09;100.00;98600.94;5137675;28;20054;-59
2023/10/09 01:38:15;;;;;;;6.40;1.48;;;;;;;3.05;100.00;98614.34;5137336;28;20408;-59
2023/10/09 01:40:43;;;;;;;1.55;1.08;;;;;;;3.10;100.00;98643.16;5137636;28;20058;-59
2023/10/09 01:43:10;;;;;;;2.05;0.93;;;;;;;3.08;100.00;98690.66;5137433;28;20070;-59
2023/10/09 01:45:41;;;;;;;3.42;1.00;;;;;;;3.18;100.00;98756.06;5137731;28;20420;-60
2023/10/09 01:48:08;;;;;;;1.60;0.93;;;;;;;3.24;100.00;98787.28;5137162;28;20116;-59
2023/10/09 01:50:36;;;;;;;1.42;0.85;;;;;;;3.05;100.00;98776.81;5137739;28;20051;-60
2023/10/09 01:53:05;;;;;;;2.80;1.05;;;;;;;3.09;100.00;98814.88;5137500;28;20050;-60
2023/10/09 01:55:34;;;;;;;2.28;1.17;;;;;;;3.04;100.00;98842.16;5137221;28;20090;-60
2023/10/09 01:58:05;;;;;;;3.83;0.98;;;;;;;3.28;100.00;98884.97;5137552;28;20058;-59
2023/10/09 02:00:31;;;;;;;1.42;0.98;;;;;;;3.25;100.00;98874.75;5137148;28;20051;-59
2023/10/09 02:03:02;;;;;;;0.95;0.80;;;;;;;3.23;100.00;98904.06;5137333;28;20058;-60
2023/10/09 02:05:33;;;;;;;1.42;1.15;;;;;;;3.02;100.00;98979.78;5137179;28;20043;-59
2023/10/09 02:08:00;;;;;;;2.47;1.10;;;;;;;3.12;100.00;99011.97;5137406;28;20089;-60
2023/10/09 02:10:31;;;;;;;2.50;0.90;;;;;;;3.03;100.00;98981.38;5137030;28;20127;-58
2023/10/09 02:13:00;;;;;;;1.20;1.02;;;;;;;3.01;100.00;98976.28;5137479;28;20047;-59
2023/10/09 02:15:51;;;;;;;3.33;1.05;;;;;;;2.94;100.00;99023.94;5138324;27;20051;-60
2023/10/09 02:18:19;;;;;;;4.72;1.15;;;;;;;2.97;100.00;99032.22;5140517;28;20408;-61
2023/10/09 02:20:45;;;;;;;3.35;1.00;;;;;;;3.16;100.00;99028.38;5140921;28;20043;-60
2023/10/09 02:23:13;;;;;;;4.82;1.15;;;;;;;3.07;100.00;99017.56;5140654;28;20055;-59
2023/10/09 02:25:45;;;;;;;1.60;1.00;;;;;;;3.24;100.00;99033.03;5141045;28;20057;-60
2023/10/09 02:28:17;;;;;;;1.80;1.10;;;;;;;3.41;100.00;99019.44;5140302;28;20062;-59
2023/10/09 02:30:46;;;;;;;5.03;1.10;;;;;;;3.31;100.00;98968.31;5140886;28;20062;-61
2023/10/09 02:33:12;;;;;;;1.55;0.85;;;;;;;3.38;100.00;98975.94;5140621;28;20324;-60
2023/10/09 02:35:42;;;;;;;2.25;1.38;;;;;;;3.38;100.00;98932.59;5140550;28;20047;-59
2023/10/09 02:38:10;;;;;;;4.80;1.40;;;;;;;3.27;100.00;98935.63;5140372;28;20112;-60
2023/10/09 02:40:47;;;;;;;1.10;1.00;;;;;;;3.03;100.00;98968.66;5140395;28;20189;-60
2023/10/09 02:43:18;;;;;;;2.75;1.00;;;;;;;3.32;100.00;98980.72;5140541;28;20046;-59
2023/10/09 02:45:50;;;;;;;3.38;1.20;;;;;;;3.51;100.00;98953.28;5140272;28;20335;-60
2023/10/09 02:48:19;;;;;;;2.92;1.30;;;;;;;3.30;100.00;98907.91;5140516;28;20145;-59
2023/10/09 02:50:45;;;;;;;2.28;1.20;;;;;;;3.39;100.00;98912.50;5140068;28;20043;-60
2023/10/09 02:53:18;;;;;;;0.90;0.90;;;;;;;3.43;100.00;98883.63;5140512;28;20453;-60
2023/10/09 02:55:53;;;;;;;1.30;0.80;;;;;;;3.40;100.00;98897.81;5139892;28;20043;-59
2023/10/09 02:58:21;;;;;;;1.25;0.95;;;;;;;3.26;100.00;98898.03;5140176;28;20137;-59
2023/10/09 03:00:48;;;;;;;1.25;1.15;;;;;;;3.50;100.00;98955.19;5140214;28;20100;-58
2023/10/09 03:03:18;;;;;;;0.80;0.75;;;;;;;3.41;100.00;98899.44;5139817;28;20050;-60
2023/10/09 03:05:44;;;;;;;2.88;1.00;;;;;;;3.42;100.00;98895.59;5140189;28;20047;-60
2023/10/09 03:08:12;;;;;;;3.63;1.20;;;;;;;3.33;100.00;98903.72;5139808;28;20332;-60
2023/10/09 03:10:38;;;;;;;1.88;0.80;;;;;;;3.20;100.00;98905.53;5140132;28;20058;-60
2023/10/09 03:13:05;;;;;;;2.33;1.05;;;;;;;3.22;100.00;98924.16;5139696;28;20336;-60
2023/10/09 03:15:35;;;;;;;4.15;1.20;;;;;;;3.16;100.00;98942.50;5140128;28;20047;-60
2023/10/09 03:18:02;;;;;;;2.35;1.10;;;;;;;3.03;100.00;98948.88;5139673;28;20349;-58
2023/10/09 03:20:30;;;;;;;4.00;1.30;;;;;;;2.78;100.00;98978.34;5140135;28;20055;-59
2023/10/09 03:22:57;;;;;;;1.73;1.17;;;;;;;2.97;100.00;99058.50;5139544;28;20047;-60
2023/10/09 03:25:25;;;;;;;1.55;0.90;;;;;;;2.63;100.00;99094.41;5139499;28;20058;-59
2023/10/09 03:27:52;;;;;;;1.05;1.00;;;;;;;2.77;100.00;99163.56;5138796;27;20055;-60
2023/10/09 03:30:22;;;;;;;1.27;0.77;;;;;;;2.67;100.00;99180.09;5139378;28;20057;-59
2023/10/09 03:32:51;;;;;;;4.47;0.90;;;;;;;2.60;100.00;99209.53;5139710;28;20054;-60
2023/10/09 03:35:23;;;;;;;2.53;1.63;;;;;;;2.46;100.00;99266.41;5139453;28;20439;-60
2023/10/09 03:37:50;;;;;;;0.93;0.70;;;;;;;2.48;100.00;99282.34;5139770;28;20057;-60
2023/10/09 03:40:17;;;;;;;1.27;0.90;;;;;;;2.61;100.00;99319.38;5139276;28;20139;-60
2023/10/09 03:42:43;;;;;;;2.10;0.80;;;;;;;2.72;100.00;99336.94;5139778;28;20047;-60
2023/10/09 03:45:18;;;;;;;1.08;0.73;;;;;;;2.66;100.00;99351.72;5139165;28;20487;-60
2023/10/09 03:47:48;;;;;;;3.13;1.08;;;;;;;2.84;100.00;99360.78;5139338;28;20199;-60
2023/10/09 03:50:26;;;;;;;2.22;0.80;;;;;;;2.88;100.00;99353.63;5139522;28;20135;-59
2023/10/09 03:52:53;;;;;;;1.63;1.25;;;;;;;2.67;100.00;99339.78;5139252;28;20057;-59
2023/10/09 03:55:21;;;;;;;1.60;1.10;;;;;;;2.56;100.00;99357.38;5139513;28;20047;-60
2023/10/09 03:57:47;;;;;;;3.35;0.90;;;;;;;2.69;100.00;99375.47;5139113;28;20138;-59
2023/10/09 04:00:23;;;;;;;3.40;1.00;;;;;;;2.56;100.00;99376.31;5139274;28;20474;-59
2023/10/09 04:02:49;;;;;;;2.67;1.27;;;;;;;2.46;100.00;99398.19;5138979;28;20372;-60
2023/10/09 04:05:16;;;;;;;1.70;0.98;;;;;;;2.73;100.00;99402.72;5139368;28;20047;-60
2023/10/09 04:07:43;;;;;;;3.70;1.00;;;;;;;2.66;100.00;99394.22;5138693;28;20369;-60
2023/10/09 04:10:32;;;;;;;2.65;1.02;;;;;;;2.78;100.00;99397.19;5138741;28;20061;-60
2023/10/09 04:13:00;;;;;;;2.08;1.10;;;;;;;2.82;100.00;99401.69;5139098;28;20047;-60
2023/10/09 04:15:30;;;;;;;5.07;1.17;;;;;;;2.76;100.00;99413.72;5138723;28;20042;-59
2023/10/09 04:17:56;;;;;;;1.45;1.00;;;;;;;2.90;100.00;99408.28;5138950;28;20055;-59
2023/10/09 04:23:06;;;;;;;2.85;1.45;;;;;;;3.03;100.00;99398.47;5138163;28;20039;-59
2023/10/09 04:25:41;;;;;;;2.25;0.98;;;;;;;2.97;100.00;99411.34;5138538;28;20382;-59
2023/10/09 04:28:09;;;;;;;2.00;0.93;;;;;;;3.16;100.00;99419.28;5138954;28;20199;-60
2023/10/09 04:30:40;;;;;;;0.88;0.82;;;;;;;3.39;100.00;99411.13;5138468;28;20055;-61
2023/10/09 04:33:11;;;;;;;2.03;1.10;;;;;;;3.47;100.00;99396.81;5138669;28;20047;-61
2023/10/09 04:35:38;;;;;;;1.13;0.93;;;;;;;3.61;100.00;99381.25;5138688;28;20051;-59
2023/10/09 04:38:05;;;;;;;2.33;1.02;;;;;;;3.27;100.00;99371.06;5138302;27;20051;-61
2023/10/09 04:40:51;;;;;;;3.60;1.23;;;;;;;3.49;100.00;99373.69;5138485;28;20058;-60
2023/10/09 04:43:20;;;;;;;0.85;0.82;;;;;;;3.56;100.00;99354.28;5138074;28;20051;-59
2023/10/09 04:48:37;;;;;;;2.35;1.10;;;;;;;3.68;100.00;99329.28;5138237;28;20046;-61
2023/10/09 04:51:31;;;;;;;4.07;1.27;;;;;;;3.72;100.00;99306.63;5137962;28;20386;-61
2023/10/09 04:54:12;;;;;;;2.63;1.00;;;;;;;3.84;100.00;99283.56;5138310;28;20051;-60
2023/10/09 04:56:51;;;;;;;3.28;1.13;;;;;;;3.92;100.00;99245.56;5137912;28;20666;-59
2023/10/09 04:59:18;;;;;;;4.63;1.35;;;;;;;3.93;100.00;99198.38;5138262;28;20061;-60
2023/10/09 05:01:57;;;;;;;6.22;1.42;;;;;;;3.53;100.00;99151.59;5137789;28;20047;-59
2023/10/09 05:04:35;;;;;;;2.53;1.00;;;;;;;3.69;100.00;99160.84;5137921;28;20046;-61
2023/10/09 05:07:22;;;;;;;4.22;0.88;;;;;;;3.88;100.00;99144.25;5137823;28;20078;-60
2023/10/09 05:09:55;;;;;;;6.72;1.10;;;;;;;3.90;100.00;99109.50;5137220;28;20047;-60
2023/10/09 05:12:26;;;;;;;2.20;1.23;;;;;;;4.12;100.00;99067.78;5137838;28;20119;-60
2023/10/09 05:15:08;;;;;;;3.40;1.55;;;;;;;4.23;100.00;99027.50;5137638;28;20128;-60
2023/10/09 05:17:35;;;;;;;5.47;1.00;;;;;;;4.46;100.00;98955.56;5137992;28;20046;-60
2023/10/09 05:22:58;;;;;;;1.50;1.17;;;;;;;4.99;100.00;98714.19;5137384;28;20058;-61
2023/10/09 05:25:53;;;;;;;3.85;1.23;;;;;;;5.01;100.00;98608.69;5137788;28;20078;-60
2023/10/09 05:28:25;;;;;;;1.65;1.13;;;;;;;5.19;100.00;98541.28;5137245;28;20488;-60
2023/10/09 05:31:02;;;;;;;4.00;1.27;;;;;;;5.18;100.00;98463.63;5137725;28;20042;-62
2023/10/09 05:33:28;;;;;;;3.25;1.30;;;;;;;5.25;100.00;98458.38;5137586;28;20130;-60
2023/10/09 05:36:14;;;;;;;1.27;1.17;;;;;;;5.18;100.00;98406.56;5137408;28;20492;-60
2023/10/09 05:38:46;;;;;;;1.48;1.25;;;;;;;4.91;100.00;98368.22;5137729;28;20378;-61
2023/10/09 05:46:36;;;;;;;13.57;2.03;;;;;;;4.72;100.00;98528.25;5137281;28;20049;-60
2023/10/09 05:49:09;;;;;;;4.60;1.40;;;;;;;4.88;100.00;98512.06;5137531;28;20357;-58
2023/10/09 05:51:46;;;;;;;3.72;1.27;;;;;;;4.92;100.00;98494.72;5136535;27;20047;-60
2023/10/09 05:54:53;;;;;;;8.23;1.50;;;;;;;4.79;100.00;98419.06;5136952;28;20055;-60
2023/10/09 06:08:06;;;;;;;1.70;1.20;;;;;;;5.03;100.00;98421.72;5136733;28;20090;-62
2023/10/09 06:10:39;;;;;;;1.75;1.45;;;;;;;4.84;100.00;98425.03;5137065;28;20070;-59
2023/10/09 06:13:07;;;;;;;10.23;1.30;;;;;;;4.68;100.00;98376.09;5136708;28;20054;-62
2023/10/09 06:16:09;;;;;;;4.55;1.15;;;;;;;5.00;100.00;98456.91;5137043;28;20273;-58
2023/10/09 06:18:35;;;;;;;1.52;1.42;;;;;;;5.62;100.00;98379.34;5136542;28;20054;-62
2023/10/09 06:21:08;;;;;;;10.20;2.00;;;;;;;6.00;100.00;98274.53;5136544;28;20162;-60
2023/10/09 06:26:25;;;;;;;1.58;1.35;;;;;;;6.01;100.00;98186.34;5136434;28;20100;-59
2023/10/09 06:29:14;;;;;;;4.72;1.25;;;;;;;5.88;100.00;98172.84;5136745;28;20241;-58
2023/10/09 06:31:59;;;;;;;4.10;1.00;;;;;;;5.83;100.00;98175.88;5136524;28;20104;-56
2023/10/09 06:34:32;;;;;;;;;;;;;;;5.58;100.00;98183.50;5136961;28;20057;-56
2023/10/09 06:37:05;;;;;;;3.03;1.17;;;;;;;5.75;100.00;98193.19;5136437;28;19934;-59
2023/10/09 06:42:33;;;;;;;3.97;1.40;;;;;;;5.75;100.00;98209.50;5053493;28;20049;-58
2023/10/09 06:45:05;;;;;;;4.32;1.30;;;;;;;5.81;100.00;98189.03;5119782;28;20054;-60
2023/10/09 06:47:41;;;;;;;2.17;1.27;;;;;;;5.64;100.00;98211.22;5136583;28;20051;-59
2023/10/09 06:50:24;;;;;;;1.88;1.38;;;;;;;5.42;100.00;98220.81;5136611;28;20320;-57
2023/10/09 06:55:48;;;;;;;2.95;1.33;;;;;;;5.76;100.00;98213.78;5135630;28;20046;-59
2023/10/09 06:58:22;;;;;;;3.88;1.40;;;;;;;5.80;100.00;98200.28;5136172;28;20101;-59
2023/10/09 07:01:00;;;;;;;2.17;1.02;;;;;;;5.92;100.00;98186.53;5136558;28;20047;-55
2023/10/09 07:03:29;;;;;;;3.97;1.15;;;;;;;6.17;100.00;98167.25;5138569;28;20051;-56
2023/10/09 07:06:09;;;;;;;5.22;1.10;;;;;;;6.70;100.00;98164.69;5139730;28;20051;-57
2023/10/09 07:08:37;;;;;;;4.05;1.52;;;;;;;6.58;100.00;98163.72;5139381;28;20415;-58
2023/10/09 07:13:52;;;;;;;1.95;1.00;;;;;;;6.98;100.00;98197.06;5139228;28;20075;-60
2023/10/09 07:16:28;;;;;;;;;;;;;;;7.50;100.00;98201.78;5139704;28;20077;-63
2023/10/09 07:18:55;;;;;;;3.83;1.60;;;;;;;7.86;100.00;98248.63;5139760;28;19950;-64
2023/10/09 07:21:28;;;;;;;2.60;1.48;;;;;;;7.34;100.00;98274.75;5139086;28;20151;-56
2023/10/09 07:23:57;;;;;;;1.98;1.10;;;;;;;8.27;100.00;98297.94;5139055;28;20058;-61
2023/10/09 07:26:36;;;;;;;2.22;1.00;;;;;;;8.64;100.00;98328.09;5139512;28;20055;-63
2023/10/09 07:29:16;;;;;;;3.13;1.45;;;;;;;8.89;100.00;98401.38;5139197;28;20086;-64
2023/10/09 07:31:45;;;;;;;4.13;1.52;;;;;;;9.29;100.00;98449.13;5139583;28;20078;-65
2023/10/09 07:36:56;;;;;;;4.72;1.58;;;;;;;9.76;100.00;98532.50;5139146;28;20053;-62
2023/10/09 07:39:22;;;;;;;2.45;1.20;;;;;;;9.13;100.00;98561.44;5138724;28;20344;-64
2023/10/09 07:42:06;;;;;;;3.78;1.90;;;;;;;9.09;100.00;98522.31;5138894;28;20142;-63
2023/10/09 07:44:42;;;;;;;1.63;1.23;;;;;;;9.66;100.00;98542.97;5139078;28;20411;-64
2023/10/09 07:47:17;;;;;;;5.60;1.10;;;;;;;9.77;100.00;98562.25;5138935;28;20047;-64
2023/10/09 07:49:48;;;;;;;2.30;1.63;;;;;;;9.89;100.00;98591.31;5139162;28;20058;-63
2023/10/09 07:52:16;;;;;;;3.05;1.50;;;;;;;10.53;100.00;98607.63;5138820;28;20340;-63
2023/10/09 07:54:49;;;;;;;4.40;1.48;;;;;;;10.87;100.00;98632.22;5139224;28;20066;-64
2023/10/09 07:57:16;;;;;;;2.08;1.38;;;;;;;11.13;100.00;98677.84;5138583;28;20069;-65
2023/10/09 07:59:54;;;;;;;2.22;1.50;;;;;;;11.62;100.00;98695.84;5139012;28;20181;-62
2023/10/09 08:02:31;;;;;;;1.95;1.40;;;;;;;12.14;100.00;98713.81;5138636;28;20051;-59
2023/10/09 08:05:03;;;;;;;1.83;1.00;;;;;;;12.40;100.00;98731.19;5138382;28;20105;-60
2023/10/09 08:07:34;;;;;;;1.63;1.10;;;;;;;12.48;100.00;98733.56;5138815;28;20051;-62
2023/10/09 08:15:26;;;;;;;3.78;1.50;;;;;;;12.74;100.00;98747.41;5137842;28;20066;-61
2023/10/09 08:17:53;;;;;;;2.30;1.70;;;;;;;12.83;100.00;98745.03;5138144;28;20443;-61
2023/10/09 08:20:24;;;;;;;4.90;1.10;;;;;;;13.17;100.00;98746.28;5138604;28;20055;-58
2023/10/09 08:22:52;;;;;;;4.35;1.80;;;;;;;12.70;100.00;98736.38;5138388;28;20053;-62
2023/10/09 08:25:28;;;;;;;2.25;1.75;;;;;;;12.10;100.00;98739.72;5138404;28;20054;-63
2023/10/09 08:27:55;;;;;;;3.33;1.70;;;;;;;12.83;100.00;98751.34;5138088;28;20074;-60
2023/10/09 08:35:47;;;;;;;5.47;1.88;;;;;;;11.82;100.00;98735.59;5137047;28;20047;-62
2023/10/09 08:38:14;;;;;;;3.08;1.52;;;;;;;12.53;100.00;98740.66;5138476;28;20069;-62
2023/10/09 08:40:43;;;;;;;3.13;1.55;;;;;;;12.36;100.00;98750.44;5138448;28;20061;-61
2023/10/09 08:43:14;;;;;;;2.25;1.10;;;;;;;12.65;100.00;98758.75;5138211;28;20145;-63
2023/10/09 08:45:46;;;;;;;3.47;1.70;;;;;;;13.24;100.00;98753.78;5138105;28;20051;-59
2023/10/09 08:48:15;;;;;;;3.67;1.20;;;;;;;13.64;100.00;98779.34;5138083;28;20058;-61
2023/10/09 08:50:42;;;;;;;3.75;1.35;;;;;;;13.21;100.00;98776.56;5138005;28;20096;-62
2023/10/09 08:53:10;;;;;;;1.77;1.10;;;;;;;13.10;100.00;98773.81;5138191;28;20047;-61
2023/10/09 08:55:37;;;;;;;1.60;0.95;;;;;;;12.99;100.00;98767.47;5137739;28;20059;-58
2023/10/09 08:58:10;;;;;;;5.38;2.08;;;;;;;13.12;100.00;98765.91;5138291;28;20386;-61
2023/10/09 09:00:38;;;;;;;2.90;1.48;;;;;;;12.54;100.00;98764.22;5137632;28;20054;-63
2023/10/09 09:03:05;;;;;;;2.38;1.30;;;;;;;13.33;100.00;98750.66;5137777;28;20059;-59
2023/10/09 09:05:35;;;;;;;4.45;1.48;;;;;;;13.17;100.00;98757.28;5137620;28;20047;-60
2023/10/09 09:08:02;;;;;;;3.35;1.83;;;;;;;13.14;100.00;98747.06;5137784;28;20051;-57
2023/10/09 09:10:35;;;;;;;3.33;1.25;;;;;;;12.63;100.00;98761.13;5137934;28;20074;-59
2023/10/09 09:13:03;;;;;;;8.00;1.80;;;;;;;13.36;100.00;98747.91;5137518;28;20083;-58
2023/10/09 09:15:30;;;;;;;5.45;1.20;;;;;;;13.76;100.00;98747.84;5138003;28;20058;-60
2023/10/09 09:18:06;;;;;;;1.48;1.38;;;;;;;13.60;100.00;98756.53;5137438;28;20055;-61
2023/10/09 09:20:36;;;;;;;1.08;0.80;;;;;;;13.32;100.00;98768.34;5137928;28;20062;-59
2023/10/09 09:23:04;;;;;;;3.35;1.10;;;;;;;13.62;100.00;98760.44;5137492;28;20137;-61
2023/10/09 09:25:44;;;;;;;2.20;1.13;;;;;;;13.60;100.00;98760.06;5136475;27;20141;-61
2023/10/09 09:28:12;;;;;;;1.77;1.00;;;;;;;13.60;100.00;98773.84;5137652;28;20061;-59
2023/10/09 09:30:40;;;;;;;6.47;1.10;;;;;;;12.71;100.00;98763.50;5137297;28;20062;-61
2023/10/09 09:33:26;;;;;;;2.25;1.00;;;;;;;11.99;100.00;98770.63;5137612;28;20324;-62
2023/10/09 09:36:02;;;;;;;2.92;1.00;;;;;;;10.69;100.00;98725.28;5137127;28;20077;-62
2023/10/09 09:38:35;;;;;;;8.02;1.60;;;;;;;10.56;100.00;98617.84;5137570;28;20161;-60
2023/10/09 09:41:07;;;;;;;2.85;1.63;;;;;;;9.54;100.00;98506.88;5137095;28;20047;-58
2023/10/09 09:43:35;;;;;;;4.25;1.42;;;;;;;9.36;100.00;98419.09;5136996;28;20405;-61
2023/10/09 09:46:07;;;;;;;1.70;1.33;;;;;;;9.14;100.00;98390.75;5137471;28;20142;-60
2023/10/09 09:48:39;;;;;;;3.45;0.93;;;;;;;8.73;100.00;98308.69;5136826;28;20059;-57
2023/10/09 09:51:08;;;;;;;0.98;0.70;;;;;;;8.83;100.00;98353.66;5137352;28;20046;-59
2023/10/09 09:53:35;;;;;;;1.80;1.23;;;;;;;8.77;100.00;98328.63;5136940;28;20097;-59
2023/10/09 09:56:02;;;;;;;1.65;0.80;;;;;;;9.15;100.00;98315.75;5137339;28;20058;-59
2023/10/09 09:58:32;;;;;;;2.22;1.40;;;;;;;9.63;100.00;98326.75;5136881;28;20101;-61
2023/10/09 10:01:15;;;;;;;2.67;1.15;;;;;;;10.51;100.00;98341.41;5137086;28;20339;-60
2023/10/09 10:03:47;;;;;;;1.90;1.23;;;;;;;10.51;100.00;98396.22;5137022;28;20301;-60
2023/10/09 10:06:14;;;;;;;1.83;0.90;;;;;;;10.58;100.00;98483.97;5136849;28;20055;-61
2023/10/09 10:08:42;;;;;;;4.72;1.98;;;;;;;11.00;100.00;98494.41;5136682;28;20057;-57
2023/10/09 10:11:13;;;;;;;3.70;1.38;;;;;;;11.47;100.00;98519.31;5136802;28;20461;-61
2023/10/09 10:14:01;;;;;;;3.30;1.38;;;;;;;11.93;100.00;98587.38;5137056;28;20100;-59
2023/10/09 10:16:34;;;;;;;2.90;1.23;;;;;;;11.92;100.00;98625.00;5136576;28;20051;-57
2023/10/09 10:19:22;;;;;;;2.23;1.03;;;;;;;12.01;100.00;98617.22;5137000;28;20432;-61
2023/10/09 10:21:49;;;;;;;4.95;1.00;;;;;;;11.88;100.00;98646.19;5136633;28;20051;-56
2023/10/09 10:24:54;;;;;;;2.38;0.98;;;;;;;11.84;100.00;98659.13;5136799;28;20130;-60
2023/10/09 10:27:26;;;;;;;0.70;0.70;;;;;;;11.91;100.00;98669.38;5133355;28;20365;-60
2023/10/09 10:30:25;;;;;;;1.33;0.85;;;;;;;11.54;100.00;98654.63;5136465;28;20373;-61
2023/10/09 10:32:56;;;;;;;2.05;1.20;;;;;;;11.52;100.00;98598.53;5136306;28;20387;-58
2023/10/09 10:35:32;;;;;;;3.45;1.05;;;;;;;11.42;100.00;98632.19;5136605;28;20069;-60
2023/10/09 10:38:11;;;;;;;1.30;1.20;;;;;;;11.77;100.00;98626.13;5139774;27;20055;-61
2023/10/09 10:40:45;;;;;;;3.05;1.30;;;;;;;11.78;100.00;98620.22;5140409;28;20043;-56
2023/10/09 10:43:31;;;;;;;0.80;0.65;;;;;;;11.93;100.00;98618.38;5140042;28;20047;-58
2023/10/09 10:46:01;;;;;;;1.80;1.30;;;;;;;12.13;100.00;98643.56;5140228;28;20080;-57
2023/10/09 10:48:37;;;;;;;1.70;1.20;;;;;;;12.46;100.00;98642.47;5139632;28;20069;-65
2023/10/09 10:51:04;;;;;;;1.55;0.98;;;;;;;12.13;100.00;98640.00;5139990;28;20059;-65
2023/10/09 10:53:34;;;;;;;1.42;0.88;;;;;;;11.86;100.00;98637.56;5140026;28;20061;-62
2023/10/09 10:56:17;;;;;;;1.70;1.10;;;;;;;11.26;100.00;98605.06;5139700;28;20058;-56
2023/10/09 11:01:50;;;;;;;2.45;1.17;;;;;;;11.91;100.00;98601.47;5138903;28;20051;-62
2023/10/09 11:04:24;;;;;;;2.85;1.00;;;;;;;12.08;100.00;98616.44;5140031;28;20051;-62
2023/10/09 11:06:51;;;;;;;;;;;;;;;11.84;100.00;98620.69;5140033;28;20409;-59
2023/10/09 11:09:21;;;;;;;1.30;1.20;;;;;;;11.85;100.00;98605.78;5139378;28;19948;-61
2023/10/09 11:11:49;;;;;;;1.98;1.20;;;;;;;12.01;100.00;98610.94;5139651;28;20058;-62
2023/10/09 11:14:15;;;;;;;4.60;1.00;;;;;;;11.74;100.00;98607.66;5139515;28;20043;-59
2023/10/09 11:16:42;;;;;;;4.43;1.02;;;;;;;10.99;100.00;98602.53;5139672;28;20058;-59
2023/10/09 11:19:22;;;;;;;3.72;1.10;;;;;;;10.91;100.00;98568.00;5139379;28;20115;-57
2023/10/09 11:21:58;;;;;;;4.75;0.95;;;;;;;10.84;100.00;98557.00;5139661;28;20051;-56
2023/10/09 11:24:26;;;;;;;4.63;1.77;;;;;;;10.52;100.00;98537.56;5139141;28;20051;-58
2023/10/09 11:26:55;;;;;;;4.05;1.33;;;;;;;10.19;100.00;98480.88;5139493;28;20058;-60
2023/10/09 11:29:52;;;;;;;1.65;0.80;;;;;;;10.09;100.00;98428.38;5139536;28;20393;-57
2023/10/09 11:32:18;;;;;;;1.30;0.90;;;;;;;10.09;100.00;98490.59;5139236;28;20058;-61
2023/10/09 11:34:51;;;;;;;2.15;0.82;;;;;;;10.33;100.00;98486.53;5139577;28;20043;-59
2023/10/09 11:37:32;;;;;;;2.20;0.80;;;;;;;9.86;100.00;98458.72;5139277;28;20340;-59
2023/10/09 11:40:00;;;;;;;3.45;1.23;;;;;;;9.41;100.00;98340.22;5139488;28;20427;-54
2023/10/09 11:42:35;;;;;;;2.88;1.48;;;;;;;9.21;100.00;98256.81;5139029;28;20058;-61
2023/10/09 11:45:11;;;;;;;2.22;1.35;;;;;;;9.12;100.00;98177.81;5139224;28;20108;-59
2023/10/09 11:47:54;;;;;;;4.00;1.80;;;;;;;9.01;100.00;98143.38;5138719;27;20059;-61
2023/10/09 11:50:22;;;;;;;2.40;1.75;;;;;;;8.65;100.00;98085.72;5139130;28;20065;-58
2023/10/09 11:53:08;;;;;;;2.38;1.83;;;;;;;8.78;100.00;98065.13;5139338;28;20047;-58
2023/10/09 11:55:36;;;;;;;2.78;1.70;;;;;;;8.85;100.00;98029.63;5138956;28;20375;-58
2023/10/09 11:58:04;;;;;;;3.25;1.30;;;;;;;9.23;100.00;98024.78;5139322;28;20055;-58
2023/10/09 12:00:32;;;;;;;1.40;1.20;;;;;;;9.22;100.00;98047.03;5138598;28;20107;-58
2023/10/09 12:03:04;;;;;;;3.50;1.20;;;;;;;9.33;100.00;98108.84;5138775;28;20055;-59
2023/10/09 12:05:31;;;;;;;2.08;1.08;;;;;;;9.19;100.00;98180.59;5138991;28;20317;-59
2023/10/09 12:07:59;;;;;;;9.07;2.42;;;;;;;9.27;100.00;98290.09;5138527;28;20421;-58
2023/10/09 12:10:25;;;;;;;3.78;1.70;;;;;;;9.08;100.00;98343.03;5138977;28;20050;-55
2023/10/09 12:12:52;;;;;;;4.97;1.40;;;;;;;9.01;100.00;98360.13;5138569;28;20417;-56
2023/10/09 12:15:19;;;;;;;2.47;0.82;;;;;;;8.83;100.00;98392.75;5139053;28;20043;-55
2023/10/09 12:17:46;;;;;;;1.67;0.80;;;;;;;8.96;100.00;98390.53;5138588;28;20141;-55
2023/10/09 12:20:29;;;;;;;4.40;1.50;;;;;;;8.89;100.00;98388.50;5138970;28;20059;-61
2023/10/09 12:22:57;;;;;;;5.63;1.15;;;;;;;8.79;100.00;98382.91;5138485;28;20097;-62
2023/10/09 12:25:23;;;;;;;3.15;1.05;;;;;;;8.77;100.00;98368.84;5138600;28;20161;-61
2023/10/09 12:27:49;;;;;;;1.02;0.93;;;;;;;8.79;100.00;98358.31;5138560;28;20209;-61
2023/10/09 12:30:18;;;;;;;1.45;0.88;;;;;;;8.71;100.00;98332.84;5138560;28;20076;-60
2023/10/09 12:32:48;;;;;;;1.45;1.25;;;;;;;8.93;100.00;98364.75;5138691;28;20119;-61
2023/10/09 12:35:17;;;;;;;13.13;2.67;;;;;;;9.13;100.00;98370.00;5138424;28;20137;-62
2023/10/09 12:37:43;;;;;;;8.00;1.00;;;;;;;9.11;100.00;98370.41;5138639;28;20062;-60
2023/10/09 12:40:11;;;;;;;3.08;1.30;;;;;;;9.43;100.00;98359.78;5138351;28;20050;-61
2023/10/09 12:42:37;;;;;;;2.47;1.02;;;;;;;9.41;100.00;98364.84;5138591;28;20306;-62
2023/10/09 12:45:08;;;;;;;1.55;0.88;;;;;;;9.52;100.00;98356.72;5137984;28;20055;-62
2023/10/09 12:47:37;;;;;;;10.07;1.00;;;;;;;9.42;100.00;98369.16;5138437;28;20043;-57